createdAt,value
2022-10-22T00:00:48.103Z,78.27
2022-10-22T00:03:15.591Z,78.28
2022-10-22T00:05:43.762Z,78.03
2022-10-22T00:08:12.504Z,78.14
2022-10-22T00:10:40.046Z,78.36
2022-10-22T00:13:07.743Z,78.00
2022-10-22T00:15:35.202Z,78.23
2022-10-22T00:18:02.685Z,77.91
2022-10-22T00:20:30.177Z,77.89
2022-10-22T00:22:57.734Z,78.26
2022-10-22T00:25:26.505Z,78.24
2022-10-22T00:27:53.967Z,78.27
2022-10-22T00:30:21.643Z,78.29
2022-10-22T00:32:49.245Z,78.24
2022-10-22T00:35:17.276Z,78.12
2022-10-22T00:37:44.930Z,78.37
2022-10-22T00:40:13.497Z,77.99
2022-10-22T00:42:42.786Z,78.40
2022-10-22T00:45:23.527Z,78.43
2022-10-22T00:47:56.813Z,78.32
2022-10-22T00:50:28.869Z,78.41
2022-10-22T00:52:58.371Z,78.29
2022-10-22T00:55:27.808Z,78.02
2022-10-22T00:57:58.953Z,78.32
2022-10-22T01:00:27.150Z,78.24
2022-10-22T01:02:55.739Z,78.36
2022-10-22T01:05:24.030Z,78.45
2022-10-22T01:07:54.083Z,78.22
2022-10-22T01:10:44.834Z,78.39
2022-10-22T01:13:24.096Z,78.68
2022-10-22T01:16:00.332Z,78.47
2022-10-22T01:18:36.830Z,78.33
2022-10-22T01:21:15.217Z,78.70
2022-10-22T01:24:05.840Z,78.90
2022-10-22T01:26:44.981Z,78.81
2022-10-22T01:29:19.925Z,79.04
2022-10-22T01:31:52.632Z,78.83
2022-10-22T01:34:21.429Z,79.01
2022-10-22T01:36:52.305Z,78.69
2022-10-22T01:39:21.307Z,78.87
2022-10-22T01:41:48.980Z,78.83
2022-10-22T01:44:29.460Z,79.21
2022-10-22T01:47:08.630Z,79.35
2022-10-22T01:50:05.489Z,79.09
2022-10-22T01:52:50.282Z,79.06
2022-10-22T01:55:27.040Z,79.31
2022-10-22T01:58:08.007Z,79.26
2022-10-22T02:00:39.488Z,79.21
2022-10-22T02:03:17.419Z,79.11
2022-10-22T02:05:51.577Z,78.94
2022-10-22T02:08:21.826Z,78.91
2022-10-22T02:10:51.567Z,79.15
2022-10-22T02:13:24.183Z,79.00
2022-10-22T02:15:54.324Z,79.12
2022-10-22T02:18:26.905Z,79.04
2022-10-22T02:20:54.974Z,79.10
2022-10-22T02:23:23.325Z,78.94
2022-10-22T02:25:56.868Z,78.95
2022-10-22T02:28:28.301Z,79.22
2022-10-22T02:31:07.285Z,79.00
2022-10-22T02:33:39.606Z,78.96
2022-10-22T02:36:09.315Z,79.24
2022-10-22T02:38:37.981Z,78.77
2022-10-22T02:41:06.041Z,78.99
2022-10-22T02:43:41.401Z,78.98
2022-10-22T02:46:10.939Z,78.97
2022-10-22T02:48:38.859Z,79.04
2022-10-22T02:51:06.948Z,79.29
2022-10-22T02:53:34.654Z,79.25
2022-10-22T02:56:02.392Z,79.00
2022-10-22T02:58:30.124Z,79.17
2022-10-22T03:00:57.817Z,79.18
2022-10-22T03:03:27.146Z,79.13
2022-10-22T03:05:54.782Z,79.03
2022-10-22T03:08:22.539Z,79.08
2022-10-22T03:10:50.326Z,79.44
2022-10-22T03:13:18.057Z,79.10
2022-10-22T03:15:45.822Z,79.11
2022-10-22T03:18:13.900Z,79.25
2022-10-22T03:20:42.993Z,79.37
2022-10-22T03:23:11.175Z,79.36
2022-10-22T03:25:44.045Z,79.06
2022-10-22T03:28:14.471Z,79.25
2022-10-22T03:30:42.164Z,78.91
2022-10-22T03:33:09.788Z,79.14
2022-10-22T03:35:43.203Z,79.15
2022-10-22T03:38:13.079Z,79.17
2022-10-22T03:40:41.583Z,79.13
2022-10-22T03:43:09.647Z,79.05
2022-10-22T03:48:06.961Z,79.04
2022-10-22T03:50:34.801Z,79.03
2022-10-22T03:53:02.675Z,79.04
2022-10-22T03:55:31.766Z,79.38
2022-10-22T03:57:59.464Z,79.45
2022-10-22T04:00:27.198Z,79.06
2022-10-22T04:02:54.942Z,79.13
2022-10-22T04:05:22.715Z,79.36
2022-10-22T04:07:50.490Z,79.11
2022-10-22T04:10:18.410Z,79.03
2022-10-22T04:12:49.707Z,79.32
2022-10-22T04:15:17.946Z,79.36
2022-10-22T04:17:45.598Z,79.18
2022-10-22T04:20:13.335Z,79.32
2022-10-22T04:22:40.920Z,79.25
2022-10-22T04:25:09.089Z,79.09
2022-10-22T04:27:37.286Z,79.28
2022-10-22T04:30:07.743Z,79.42
2022-10-22T04:32:35.596Z,79.58
2022-10-22T04:35:03.426Z,79.68
2022-10-22T04:37:32.985Z,79.55
2022-10-22T04:40:00.761Z,79.60
2022-10-22T04:42:28.397Z,79.37
2022-10-22T04:44:56.074Z,79.82
2022-10-22T04:47:25.146Z,79.56
2022-10-22T04:49:52.868Z,79.69
2022-10-22T04:52:20.716Z,79.38
2022-10-22T04:54:48.601Z,79.59
2022-10-22T04:57:16.370Z,79.53
2022-10-22T04:59:44.085Z,79.44
2022-10-22T05:08:32.629Z,79.59
2022-10-22T05:11:06.245Z,79.56
2022-10-22T05:13:48.587Z,79.59
2022-10-22T05:16:16.918Z,79.41
2022-10-22T05:18:45.502Z,79.38
2022-10-22T05:21:16.244Z,79.80
2022-10-22T05:23:46.289Z,79.50
2022-10-22T05:26:16.103Z,79.54
2022-10-22T05:28:44.582Z,79.54
2022-10-22T05:31:14.713Z,79.41
2022-10-22T05:33:43.755Z,79.42
2022-10-22T05:36:14.567Z,79.69
2022-10-22T05:38:42.302Z,79.49
2022-10-22T05:41:13.529Z,79.65
2022-10-22T05:43:41.193Z,79.44
2022-10-22T05:46:11.887Z,79.63
2022-10-22T05:48:40.188Z,79.39
2022-10-22T05:51:10.270Z,79.61
2022-10-22T05:53:39.696Z,79.63
2022-10-22T05:56:10.873Z,79.67
2022-10-22T05:58:40.599Z,79.59
2022-10-22T06:01:10.104Z,79.47
2022-10-22T06:03:37.962Z,79.67
2022-10-22T06:06:15.268Z,79.44
2022-10-22T06:08:44.998Z,79.65
2022-10-22T06:11:12.789Z,79.73
2022-10-22T06:13:42.195Z,79.49
2022-10-22T06:16:09.701Z,79.68
2022-10-22T06:18:37.729Z,79.63
2022-10-22T06:21:07.399Z,79.87
2022-10-22T06:23:35.313Z,79.59
2022-10-22T06:26:03.459Z,79.59
2022-10-22T06:28:31.859Z,79.71
2022-10-22T06:31:01.816Z,79.42
2022-10-22T06:33:32.576Z,79.54
2022-10-22T06:36:07.573Z,79.77
2022-10-22T06:38:35.730Z,79.57
2022-10-22T06:41:04.795Z,79.61
2022-10-22T06:43:32.559Z,79.69
2022-10-22T06:46:09.877Z,79.74
2022-10-22T06:48:46.912Z,79.63
2022-10-22T06:51:17.226Z,79.56
2022-10-22T06:53:44.975Z,79.81
2022-10-22T06:56:34.185Z,79.84
2022-10-22T06:59:08.756Z,79.70
2022-10-22T07:01:38.758Z,79.63
2022-10-22T07:04:07.011Z,79.71
2022-10-22T07:06:35.007Z,79.74
2022-10-22T07:09:03.716Z,79.73
2022-10-22T07:11:38.889Z,79.68
2022-10-22T07:14:06.494Z,79.98
2022-10-22T07:16:34.519Z,79.78
2022-10-22T07:19:05.864Z,80.10
2022-10-22T07:21:36.327Z,79.66
2022-10-22T07:24:03.946Z,79.98
2022-10-22T07:26:32.748Z,79.71
2022-10-22T07:29:02.019Z,79.91
2022-10-22T07:31:29.892Z,80.03
2022-10-22T07:33:57.619Z,80.08
2022-10-22T07:36:26.559Z,79.89
2022-10-22T07:38:57.043Z,79.74
2022-10-22T07:41:25.236Z,79.88
2022-10-22T07:43:53.330Z,80.16
2022-10-22T07:46:21.557Z,80.11
2022-10-22T07:48:51.577Z,80.21
2022-10-22T07:51:19.716Z,79.94
2022-10-22T07:53:48.767Z,80.17
2022-10-22T07:56:17.872Z,80.22
2022-10-22T07:58:45.693Z,80.21
2022-10-22T08:01:13.270Z,80.08
2022-10-22T08:03:40.843Z,80.47
2022-10-22T08:06:08.823Z,80.34
2022-10-22T08:08:36.519Z,79.99
2022-10-22T08:11:05.616Z,80.25
2022-10-22T08:13:33.418Z,79.89
2022-10-22T08:16:02.225Z,80.07
2022-10-22T08:18:33.456Z,80.38
2022-10-22T08:21:07.645Z,80.10
2022-10-22T08:23:35.387Z,80.24
2022-10-22T08:26:06.862Z,79.95
2022-10-22T08:28:38.991Z,79.92
2022-10-22T08:34:05.917Z,79.80
2022-10-22T08:36:34.511Z,79.97
2022-10-22T08:39:08.636Z,80.19
2022-10-22T08:41:45.573Z,79.93
2022-10-22T08:44:47.740Z,80.04
2022-10-22T08:47:28.768Z,79.94
2022-10-22T08:49:57.228Z,79.77
2022-10-22T08:52:24.814Z,79.95
2022-10-22T08:54:54.973Z,80.12
2022-10-22T08:57:45.645Z,80.05
2022-10-22T09:00:25.011Z,79.74
2022-10-22T09:03:03.603Z,79.74
2022-10-22T09:05:41.181Z,79.93
2022-10-22T09:08:11.781Z,79.94
2022-10-22T09:10:44.958Z,80.08
2022-10-22T09:13:16.936Z,79.88
2022-10-22T09:15:47.306Z,80.27
2022-10-22T09:18:31.815Z,79.89
2022-10-22T09:21:05.414Z,79.78
2022-10-22T09:23:39.925Z,79.95
2022-10-22T09:26:15.282Z,79.85
2022-10-22T09:28:44.279Z,80.00
2022-10-22T09:31:15.429Z,80.27
2022-10-22T09:33:51.625Z,79.74
2022-10-22T09:36:23.728Z,79.96
2022-10-22T09:38:53.252Z,79.75
2022-10-22T09:41:29.692Z,79.91
2022-10-22T09:43:57.492Z,80.30
2022-10-22T09:46:32.577Z,79.90
2022-10-22T09:49:05.586Z,79.87
2022-10-22T09:51:51.123Z,79.65
2022-10-22T09:54:22.276Z,79.97
2022-10-22T09:56:54.714Z,79.85
2022-10-22T09:59:29.279Z,79.88
2022-10-22T10:02:19.801Z,79.58
2022-10-22T10:04:56.913Z,79.65
2022-10-22T10:07:26.576Z,79.91
2022-10-22T10:09:55.586Z,79.92
2022-10-22T10:12:36.387Z,79.74
2022-10-22T10:15:18.667Z,79.65
2022-10-22T10:17:56.831Z,79.95
2022-10-22T10:20:35.439Z,79.68
2022-10-22T10:23:09.588Z,79.68
2022-10-22T10:25:43.783Z,79.66
2022-10-22T10:28:22.887Z,79.56
2022-10-22T10:30:58.993Z,79.55
2022-10-22T10:33:36.610Z,79.59
2022-10-22T10:36:11.343Z,79.34
2022-10-22T10:38:48.976Z,79.32
2022-10-22T10:41:30.850Z,79.36
2022-10-22T10:44:15.332Z,79.07
2022-10-22T10:46:51.403Z,79.22
2022-10-22T10:49:25.296Z,79.08
2022-10-22T10:52:02.444Z,79.06
2022-10-22T10:54:43.138Z,78.97
2022-10-22T10:57:20.552Z,79.01
2022-10-22T11:00:01.168Z,78.97
2022-10-22T11:02:49.114Z,79.17
2022-10-22T11:05:29.206Z,78.82
2022-10-22T11:08:01.044Z,79.09
2022-10-22T11:10:32.945Z,79.19
2022-10-22T11:13:08.796Z,79.27
2022-10-22T11:15:41.475Z,79.18
2022-10-22T11:18:16.823Z,79.09
2022-10-22T11:21:04.386Z,78.38
2022-10-22T11:23:39.938Z,78.71
2022-10-22T11:26:14.931Z,78.38
2022-10-22T11:28:46.765Z,78.22
2022-10-22T11:31:16.798Z,78.14
2022-10-22T11:33:54.596Z,77.83
2022-10-22T11:39:05.052Z,77.96
2022-10-22T11:41:35.440Z,77.63
2022-10-22T11:44:11.168Z,77.23
2022-10-22T11:46:47.027Z,76.92
2022-10-22T11:49:23.280Z,76.91
2022-10-22T11:51:53.311Z,76.78
2022-10-22T11:54:42.338Z,76.43
2022-10-22T11:57:19.877Z,76.16
2022-10-22T11:59:51.850Z,75.81
2022-10-22T12:02:26.849Z,75.45
2022-10-22T12:04:56.825Z,75.27
2022-10-22T12:07:36.436Z,75.26
2022-10-22T12:10:07.424Z,74.86
2022-10-22T12:12:40.143Z,74.77
2022-10-22T12:15:25.355Z,74.35
2022-10-22T12:18:16.194Z,74.28
2022-10-22T12:20:44.026Z,74.65
2022-10-22T12:23:15.032Z,74.05
2022-10-22T12:25:43.363Z,74.03
2022-10-22T12:28:14.320Z,73.59
2022-10-22T12:30:42.103Z,73.29
2022-10-22T12:33:22.712Z,71.82
2022-10-22T12:35:55.490Z,72.39
2022-10-22T12:38:25.646Z,71.00
2022-10-22T12:40:57.683Z,70.29
2022-10-22T12:43:29.909Z,68.77
2022-10-22T12:46:00.196Z,68.37
2022-10-22T12:48:31.264Z,66.79
2022-10-22T12:51:02.244Z,66.39
2022-10-22T12:53:35.130Z,65.17
2022-10-22T12:56:05.831Z,64.46
2022-10-22T12:58:39.985Z,64.18
2022-10-22T13:01:08.066Z,63.21
2022-10-22T13:03:38.939Z,62.36
2022-10-22T13:06:24.877Z,62.72
2022-10-22T13:09:14.843Z,62.70
2022-10-22T13:11:49.677Z,60.57
2022-10-22T13:14:22.456Z,61.38
2022-10-22T13:17:12.182Z,61.87
2022-10-22T13:19:46.401Z,60.42
2022-10-22T13:22:30.491Z,61.63
2022-10-22T13:25:01.103Z,58.86
2022-10-22T13:27:29.772Z,58.35
2022-10-22T13:29:58.047Z,58.48
2022-10-22T13:32:31.899Z,60.20
2022-10-22T13:35:01.637Z,58.59
2022-10-22T13:37:33.990Z,58.46
2022-10-22T13:40:04.089Z,58.32
2022-10-22T13:42:33.192Z,58.16
2022-10-22T13:45:00.721Z,57.78
2022-10-22T13:47:30.507Z,58.82
2022-10-22T13:50:01.512Z,58.85
2022-10-22T13:52:35.662Z,58.74
2022-10-22T13:55:14.305Z,60.21
2022-10-22T13:57:41.927Z,58.52
2022-10-22T14:00:13.105Z,59.02
2022-10-22T14:02:41.489Z,58.71
2022-10-22T14:05:11.205Z,58.92
2022-10-22T14:07:40.054Z,59.37
2022-10-22T14:10:17.359Z,60.20
2022-10-22T14:12:49.287Z,58.06
2022-10-22T14:15:21.116Z,58.84
2022-10-22T14:17:52.774Z,59.26
2022-10-22T14:20:23.250Z,59.48
2022-10-22T14:22:52.031Z,59.52
2022-10-22T14:25:22.812Z,59.87
2022-10-22T14:27:50.791Z,59.58
2022-10-22T14:30:25.448Z,60.19
2022-10-22T14:32:53.572Z,59.63
2022-10-22T14:35:23.522Z,59.83
2022-10-22T14:37:51.876Z,59.80
2022-10-22T14:40:21.734Z,60.27
2022-10-22T14:42:49.984Z,60.10
2022-10-22T14:45:21.326Z,60.36
2022-10-22T14:47:49.474Z,60.27
2022-10-22T14:50:18.103Z,60.25
2022-10-22T14:52:46.512Z,60.36
2022-10-22T14:55:16.846Z,60.56
2022-10-22T14:57:47.353Z,60.82
2022-10-22T15:00:17.680Z,60.89
2022-10-22T15:02:46.046Z,60.83
2022-10-22T15:05:13.993Z,60.77
2022-10-22T15:07:41.793Z,60.82
2022-10-22T15:10:10.732Z,61.16
2022-10-22T15:12:38.298Z,61.02
2022-10-22T15:15:08.600Z,61.26
2022-10-22T15:17:37.201Z,61.08
2022-10-22T15:20:06.295Z,61.24
2022-10-22T15:22:35.943Z,61.34
2022-10-22T15:25:04.662Z,61.40
2022-10-22T15:27:32.142Z,61.38
2022-10-22T15:29:59.857Z,61.43
2022-10-22T15:32:29.681Z,61.71
2022-10-22T15:34:57.629Z,61.62
2022-10-22T15:37:25.139Z,61.68
2022-10-22T15:39:52.607Z,61.81
2022-10-22T15:42:20.239Z,61.57
2022-10-22T15:44:48.208Z,61.88
2022-10-22T15:47:15.821Z,61.88
2022-10-22T15:49:45.892Z,61.97
2022-10-22T15:52:13.385Z,62.05
2022-10-22T15:54:42.424Z,61.76
2022-10-22T15:57:10.720Z,62.10
2022-10-22T15:59:38.344Z,62.20
2022-10-22T16:02:07.281Z,62.28
2022-10-22T16:04:34.936Z,62.22
2022-10-22T16:07:03.705Z,62.47
2022-10-22T16:09:31.949Z,62.42
2022-10-22T16:11:59.429Z,62.52
2022-10-22T16:14:28.684Z,62.65
2022-10-22T16:16:57.051Z,62.67
2022-10-22T16:19:25.435Z,62.87
2022-10-22T16:21:56.153Z,62.94
2022-10-22T16:24:25.147Z,62.92
2022-10-22T16:26:53.206Z,63.02
2022-10-22T16:29:21.037Z,63.16
2022-10-22T16:31:48.644Z,63.36
2022-10-22T16:34:16.934Z,63.41
2022-10-22T16:36:45.068Z,63.48
2022-10-22T16:39:12.598Z,63.57
2022-10-22T16:41:41.358Z,63.67
2022-10-22T16:44:10.730Z,63.65
2022-10-22T16:46:38.842Z,63.75
2022-10-22T16:49:07.514Z,64.02
2022-10-22T16:51:35.549Z,64.02
2022-10-22T16:54:05.539Z,64.10
2022-10-22T16:56:36.602Z,64.04
2022-10-22T16:59:05.419Z,64.13
2022-10-22T17:01:36.735Z,64.27
2022-10-22T17:04:07.312Z,64.08
2022-10-22T17:06:35.155Z,64.39
2022-10-22T17:09:03.553Z,64.53
2022-10-22T17:11:36.312Z,64.67
2022-10-22T17:14:07.798Z,64.85
2022-10-22T17:16:35.356Z,64.87
2022-10-22T17:19:04.987Z,64.88
2022-10-22T17:21:33.900Z,64.97
2022-10-22T17:24:01.673Z,65.09
2022-10-22T17:26:30.386Z,65.19
2022-10-22T17:28:58.376Z,65.47
2022-10-22T17:31:29.992Z,65.62
2022-10-22T17:33:59.840Z,65.90
2022-10-22T17:36:31.806Z,65.84
2022-10-22T17:39:06.525Z,66.01
2022-10-22T17:41:35.616Z,66.37
2022-10-22T17:44:05.749Z,66.49
2022-10-22T17:46:34.665Z,66.55
2022-10-22T17:49:06.911Z,66.76
2022-10-22T17:51:34.682Z,66.71
2022-10-22T17:54:03.554Z,66.83
2022-10-22T17:56:33.688Z,67.19
2022-10-22T17:59:01.253Z,67.04
2022-10-22T18:01:30.838Z,67.21
2022-10-22T18:04:02.612Z,67.35
2022-10-22T18:06:30.442Z,67.87
2022-10-22T18:08:58.307Z,67.68
2022-10-22T18:11:28.303Z,67.74
2022-10-22T18:13:58.380Z,67.72
2022-10-22T18:16:26.889Z,67.97
2022-10-22T18:18:56.389Z,67.98
2022-10-22T18:21:29.675Z,68.25
2022-10-22T18:24:00.220Z,68.33
2022-10-22T18:26:27.904Z,68.19
2022-10-22T18:28:55.714Z,68.34
2022-10-22T18:31:25.228Z,68.45
2022-10-22T18:36:24.055Z,68.59
2022-10-22T18:38:55.127Z,68.59
2022-10-22T18:41:23.408Z,68.93
2022-10-22T18:43:51.492Z,68.79
2022-10-22T18:46:22.150Z,68.87
2022-10-22T18:48:49.945Z,68.87
2022-10-22T18:51:17.676Z,69.05
2022-10-22T18:53:58.887Z,69.11
2022-10-22T18:56:34.193Z,69.51
2022-10-22T18:59:02.148Z,69.39
2022-10-22T19:01:30.479Z,69.61
2022-10-22T19:03:58.348Z,69.55
2022-10-22T19:06:30.502Z,69.77
2022-10-22T19:09:00.222Z,69.80
2022-10-22T19:11:28.162Z,69.82
2022-10-22T19:13:57.682Z,70.02
2022-10-22T19:16:28.748Z,69.68
2022-10-22T19:19:04.038Z,69.71
2022-10-22T19:21:32.226Z,69.83
2022-10-22T19:24:01.236Z,69.81
2022-10-22T19:26:30.568Z,70.05
2022-10-22T19:29:00.921Z,70.01
2022-10-22T19:31:31.692Z,70.22
2022-10-22T19:34:01.017Z,69.78
2022-10-22T19:36:30.241Z,70.41
2022-10-22T19:39:04.154Z,69.95
2022-10-22T19:41:34.068Z,70.05
2022-10-22T19:44:03.714Z,69.83
2022-10-22T19:46:33.613Z,69.95
2022-10-22T19:49:03.028Z,70.27
2022-10-22T19:51:33.507Z,70.25
2022-10-22T19:54:03.191Z,70.30
2022-10-22T19:56:32.065Z,70.28
2022-10-22T19:59:00.164Z,70.22
2022-10-22T20:01:31.952Z,70.43
2022-10-22T20:04:01.482Z,70.36
2022-10-22T20:06:29.826Z,70.18
2022-10-22T20:08:58.421Z,70.47
2022-10-22T20:11:29.622Z,70.37
2022-10-22T20:13:59.099Z,70.31
2022-10-22T20:16:31.574Z,70.60
2022-10-22T20:19:03.595Z,70.58
2022-10-22T20:21:31.777Z,70.55
2022-10-22T20:24:00.161Z,70.59
2022-10-22T20:26:29.150Z,70.42
2022-10-22T20:28:57.323Z,70.85
2022-10-22T20:31:27.101Z,70.80
2022-10-22T20:33:57.235Z,70.64
2022-10-22T20:36:25.726Z,70.96
2022-10-22T20:38:53.384Z,70.92
2022-10-22T20:41:23.149Z,70.84
2022-10-22T20:43:52.837Z,70.81
2022-10-22T20:46:23.074Z,71.08
2022-10-22T20:48:52.525Z,71.45
2022-10-22T20:51:21.950Z,71.29
2022-10-22T20:53:50.218Z,71.42
2022-10-22T20:56:18.747Z,71.32
2022-10-22T20:58:48.496Z,71.37
2022-10-22T21:01:21.507Z,71.58
2022-10-22T21:03:50.786Z,71.79
2022-10-22T21:06:20.871Z,71.85
2022-10-22T21:08:49.799Z,72.03
2022-10-22T21:11:17.462Z,71.75
2022-10-22T21:13:45.458Z,72.09
2022-10-22T21:16:14.512Z,71.79
2022-10-22T21:18:42.008Z,71.94
2022-10-22T21:21:10.561Z,72.22
2022-10-22T21:23:38.074Z,71.95
2022-10-22T21:26:07.628Z,72.08
2022-10-22T21:28:36.054Z,72.10
2022-10-22T21:31:04.792Z,72.19
2022-10-22T21:33:32.645Z,72.41
2022-10-22T21:36:00.281Z,72.27
2022-10-22T21:38:27.842Z,72.39
2022-10-22T21:40:56.639Z,72.07
2022-10-22T21:43:25.400Z,72.52
2022-10-22T21:45:52.869Z,72.45
2022-10-22T21:48:20.346Z,72.18
2022-10-22T21:50:49.792Z,72.08
2022-10-22T21:53:17.198Z,72.47
2022-10-22T21:55:44.635Z,72.44
2022-10-22T21:58:12.060Z,72.34
2022-10-22T22:00:40.877Z,72.53
2022-10-22T22:03:08.456Z,72.32
2022-10-22T22:05:36.145Z,72.41
2022-10-22T22:08:03.684Z,72.46
2022-10-22T22:10:31.146Z,72.33
2022-10-22T22:12:58.746Z,72.68
2022-10-22T22:15:26.212Z,72.57
2022-10-22T22:17:54.994Z,72.53
2022-10-22T22:20:22.469Z,72.59
2022-10-22T22:22:50.044Z,72.43
2022-10-22T22:25:17.688Z,72.29
2022-10-22T22:27:45.291Z,72.56
2022-10-22T22:30:13.265Z,72.44
2022-10-22T22:32:42.408Z,72.54
2022-10-22T22:35:11.759Z,72.28
2022-10-22T22:37:39.360Z,72.69
2022-10-22T22:40:08.090Z,72.38
2022-10-22T22:42:35.577Z,72.37
2022-10-22T22:45:03.006Z,72.45
2022-10-22T22:47:30.860Z,72.57
2022-10-22T22:49:58.321Z,72.65
2022-10-22T22:52:27.066Z,72.37
2022-10-22T22:54:54.563Z,72.26
2022-10-22T22:57:21.997Z,72.46
2022-10-22T22:59:51.172Z,72.38
2022-10-22T23:02:18.625Z,72.42
2022-10-22T23:04:46.570Z,72.48
2022-10-22T23:07:14.071Z,72.15
2022-10-22T23:09:42.950Z,72.43
2022-10-22T23:12:10.554Z,72.61
2022-10-22T23:14:37.985Z,72.08
2022-10-22T23:17:05.393Z,72.23
2022-10-22T23:19:32.891Z,72.68
2022-10-22T23:22:00.875Z,72.28
2022-10-22T23:24:30.310Z,72.68
2022-10-22T23:27:02.790Z,72.45
2022-10-22T23:29:32.353Z,72.38
2022-10-22T23:32:02.397Z,72.22
2022-10-22T23:34:31.892Z,72.28
2022-10-22T23:37:00.467Z,72.31
2022-10-22T23:39:29.511Z,72.44
2022-10-22T23:41:57.138Z,72.54
2022-10-22T23:44:26.609Z,72.40
2022-10-22T23:46:55.137Z,72.53
2022-10-22T23:49:22.600Z,72.71
2022-10-22T23:51:49.991Z,72.61
2022-10-22T23:54:17.793Z,72.50
2022-10-22T23:56:45.383Z,72.57
